Terminal Aerodrome Forecast
Issued by NWS

Home | Current Version | Previous Version | Text Only | Print | Product List | Glossary On
Versions: 1 2 3 4 5 6 7 8 9 10 11 12 13
000
FTUS44 KCRP 070529
TAFLRD
TAF
KLRD 070529Z 0706/0806 13012KT P6SM SCT025
     FM070900 14010KT P6SM OVC012
     FM071600 16012KT P6SM BKN025
     FM072100 10010KT P6SM OVC035=

USA.gov is the U.S. government's official web portal to all federal, state and local government web resources and services.